Time;durP1;ratioP1;P1;durP2;ratioP2;P2;SDS_P1;SDS_P2;PMS_P1;PMS_P2;Temp;Humidity;BMP_temperature;BMP_pressure;BME280_temperature;BME280_humidity;BME280_pressure;Samples;Min_cycle;Max_cycle;Signal;HPM_P1;HPM_P2
2023/08/29 00:02:22;;;;;;;6.80;4.60;;;14.00;99.90;;;;;;4980552;28;20431;-69
2023/08/29 00:04:48;;;;;;;4.93;4.57;;;14.00;99.90;;;;;;4975011;28;20191;-69
2023/08/29 00:07:14;;;;;;;4.80;4.40;;;14.00;99.90;;;;;;4981063;28;20191;-69
2023/08/29 00:09:39;;;;;;;5.43;4.87;;;14.00;99.90;;;;;;4973347;28;20274;-70
2023/08/29 00:12:05;;;;;;;4.73;4.43;;;14.00;99.90;;;;;;4974699;28;20542;-69
2023/08/29 00:14:30;;;;;;;10.10;5.83;;;14.00;99.90;;;;;;4980408;28;20524;-69
2023/08/29 00:16:56;;;;;;;5.00;4.60;;;14.10;99.90;;;;;;4979423;28;20215;-70
2023/08/29 00:19:21;;;;;;;4.50;4.10;;;14.10;99.90;;;;;;4973881;28;20235;-70
2023/08/29 00:21:47;;;;;;;4.63;4.23;;;14.00;99.90;;;;;;4974427;28;20192;-69
2023/08/29 00:24:13;;;;;;;5.93;4.63;;;14.00;99.90;;;;;;4973841;28;20255;-69
2023/08/29 00:26:39;;;;;;;7.23;5.00;;;14.00;99.90;;;;;;4971555;28;20216;-69
2023/08/29 00:29:05;;;;;;;4.90;4.50;;;14.00;99.90;;;;;;4975232;28;20486;-69
2023/08/29 00:31:30;;;;;;;4.63;4.03;;;14.00;99.90;;;;;;4978097;28;20226;-69
2023/08/29 00:33:56;;;;;;;5.13;4.73;;;14.00;99.90;;;;;;4973972;28;20176;-69
2023/08/29 00:36:22;;;;;;;4.43;4.10;;;14.10;99.90;;;;;;4971532;28;20200;-69
2023/08/29 00:38:47;;;;;;;5.50;5.10;;;14.00;99.90;;;;;;4973973;28;20439;-69
2023/08/29 00:41:13;;;;;;;5.70;4.00;;;14.00;99.90;;;;;;4989357;28;20184;-69
2023/08/29 00:43:38;;;;;;;5.13;4.77;;;14.00;99.90;;;;;;4971505;28;20196;-69
2023/08/29 00:46:06;;;;;;;5.13;4.83;;;14.00;99.90;;;;;;4981478;28;20215;-69
2023/08/29 00:48:32;;;;;;;6.03;5.00;;;14.00;99.90;;;;;;4972381;28;20679;-70
2023/08/29 00:50:59;;;;;;;4.77;4.37;;;14.00;99.90;;;;;;4971867;28;21238;-69
2023/08/29 00:53:25;;;;;;;7.03;4.63;;;14.00;99.90;;;;;;4972463;28;20443;-69
2023/08/29 00:55:51;;;;;;;5.17;4.77;;;14.10;99.90;;;;;;4971895;28;20849;-68
2023/08/29 00:58:17;;;;;;;5.27;4.77;;;14.10;99.90;;;;;;4976280;28;20445;-69
2023/08/29 01:00:43;;;;;;;6.10;5.33;;;14.10;99.90;;;;;;4977894;28;20184;-69
2023/08/29 01:03:08;;;;;;;6.20;5.60;;;14.10;99.90;;;;;;4975847;28;20422;-69
2023/08/29 01:05:34;;;;;;;5.37;4.97;;;14.00;99.90;;;;;;4977819;28;20208;-69
2023/08/29 01:08:01;;;;;;;5.50;5.20;;;14.00;99.90;;;;;;4980944;28;20180;-69
2023/08/29 01:11:00;;;;;;;5.77;5.37;;;14.00;99.90;;;;;;4973029;28;20196;-70
2023/08/29 01:13:47;;;;;;;5.80;5.30;;;14.10;99.90;;;;;;4967876;28;20427;-69
2023/08/29 01:16:15;;;;;;;6.10;5.30;;;14.10;99.90;;;;;;4968391;28;20467;-69
2023/08/29 01:18:43;;;;;;;7.20;5.80;;;14.00;99.90;;;;;;4977917;28;20462;-69
2023/08/29 01:21:30;;;;;;;5.50;5.10;;;14.00;99.90;;;;;;4978215;28;20439;-69
2023/08/29 01:24:15;;;;;;;5.80;5.20;;;14.00;99.90;;;;;;4983515;28;20793;-69
2023/08/29 01:26:42;;;;;;;6.30;5.00;;;14.00;99.90;;;;;;4980427;28;20931;-68
2023/08/29 01:29:08;;;;;;;7.10;5.47;;;14.10;99.90;;;;;;4978667;28;20836;-69
2023/08/29 01:31:34;;;;;;;6.37;5.30;;;14.00;99.90;;;;;;4988818;28;20434;-69
2023/08/29 01:34:00;;;;;;;5.10;4.70;;;14.00;99.90;;;;;;4992851;28;20171;-69
2023/08/29 01:36:47;;;;;;;5.03;4.73;;;14.10;99.90;;;;;;4982675;28;20465;-69
2023/08/29 01:39:13;;;;;;;5.10;4.67;;;14.00;99.90;;;;;;4967501;28;20443;-69
2023/08/29 01:41:38;;;;;;;5.00;4.60;;;14.10;99.90;;;;;;4983012;28;20578;-69
2023/08/29 01:44:05;;;;;;;6.97;4.50;;;14.10;99.90;;;;;;4971748;28;20195;-69
2023/08/29 01:46:31;;;;;;;5.37;4.53;;;14.10;99.90;;;;;;4972051;28;20235;-69
2023/08/29 01:48:58;;;;;;;5.10;4.80;;;14.10;99.90;;;;;;4970679;28;20452;-69
2023/08/29 01:51:25;;;;;;;5.73;5.30;;;14.10;99.90;;;;;;4971197;28;20299;-69
2023/08/29 01:53:51;;;;;;;4.93;4.50;;;14.10;99.90;;;;;;4978637;28;20535;-70
2023/08/29 01:56:19;;;;;;;4.70;4.40;;;14.00;99.90;;;;;;4967622;28;20989;-69
2023/08/29 01:58:46;;;;;;;6.10;5.50;;;14.00;99.90;;;;;;4975103;28;20435;-69
2023/08/29 02:01:12;;;;;;;5.10;4.70;;;14.00;99.90;;;;;;4976746;28;20442;-69
2023/08/29 02:03:38;;;;;;;4.80;4.40;;;14.00;99.90;;;;;;4974094;28;21028;-69
2023/08/29 02:06:03;;;;;;;5.60;5.20;;;14.00;99.90;;;;;;4980911;28;20458;-70
2023/08/29 02:08:29;;;;;;;5.67;4.90;;;14.10;99.90;;;;;;4971212;28;20646;-69
2023/08/29 02:10:54;;;;;;;5.83;5.33;;;14.10;99.90;;;;;;4977206;28;20276;-69
2023/08/29 02:13:20;;;;;;;5.50;5.10;;;14.10;99.90;;;;;;4971285;28;20185;-69
2023/08/29 02:15:45;;;;;;;5.53;5.03;;;14.20;99.90;;;;;;4973070;28;20693;-69
2023/08/29 02:18:11;;;;;;;4.70;4.40;;;14.20;99.90;;;;;;4974016;28;20229;-69
2023/08/29 02:20:36;;;;;;;8.20;6.70;;;14.20;99.90;;;;;;4971755;28;20360;-70
2023/08/29 02:23:02;;;;;;;5.80;5.40;;;14.10;99.90;;;;;;4954425;28;20188;-70
2023/08/29 02:25:28;;;;;;;5.57;5.13;;;14.10;99.90;;;;;;4975473;28;20727;-70
2023/08/29 02:27:54;;;;;;;7.17;5.93;;;14.10;99.90;;;;;;4971289;28;20180;-69
2023/08/29 02:30:20;;;;;;;5.93;5.43;;;14.10;99.90;;;;;;4971776;28;20518;-69
2023/08/29 02:32:45;;;;;;;5.90;5.40;;;14.10;99.90;;;;;;4971048;28;20188;-70
2023/08/29 02:35:11;;;;;;;13.40;5.43;;;14.10;99.90;;;;;;4972814;28;20565;-69
2023/08/29 02:37:37;;;;;;;6.13;5.73;;;14.10;99.90;;;;;;4972433;28;20180;-70
2023/08/29 02:40:07;;;;;;;5.43;5.03;;;14.20;99.90;;;;;;4966322;28;20455;-69
2023/08/29 02:42:32;;;;;;;6.33;5.83;;;14.20;99.90;;;;;;4975558;28;20659;-69
2023/08/29 02:44:58;;;;;;;9.20;5.07;;;14.20;99.90;;;;;;4963308;28;20474;-69
2023/08/29 02:47:23;;;;;;;5.33;4.83;;;14.10;99.90;;;;;;4972070;28;20184;-70
2023/08/29 02:49:49;;;;;;;6.20;5.70;;;14.10;99.90;;;;;;4971740;28;20218;-69
2023/08/29 02:52:14;;;;;;;6.83;5.00;;;14.20;99.90;;;;;;4974720;28;20317;-70
2023/08/29 02:54:40;;;;;;;6.07;5.57;;;14.10;99.90;;;;;;4992021;28;20180;-70
2023/08/29 02:57:05;;;;;;;6.33;5.73;;;14.10;99.90;;;;;;4956671;28;20293;-71
2023/08/29 02:59:31;;;;;;;9.93;6.03;;;14.10;99.90;;;;;;4968597;28;20173;-69
2023/08/29 03:01:57;;;;;;;6.07;5.57;;;14.20;99.90;;;;;;4976246;28;20219;-69
2023/08/29 03:04:23;;;;;;;6.00;5.60;;;14.20;99.90;;;;;;4981691;28;20184;-70
2023/08/29 03:06:51;;;;;;;6.23;5.70;;;14.20;99.90;;;;;;4991146;28;20818;-70
2023/08/29 03:09:16;;;;;;;6.00;5.50;;;14.20;99.90;;;;;;4972957;28;20190;-70
2023/08/29 03:11:42;;;;;;;6.37;5.67;;;14.20;99.90;;;;;;4981815;28;20431;-69
2023/08/29 03:14:07;;;;;;;5.80;5.40;;;14.20;99.90;;;;;;4981675;28;20180;-70
2023/08/29 03:16:33;;;;;;;6.03;5.53;;;14.20;99.90;;;;;;4981793;28;20302;-69
2023/08/29 03:18:58;;;;;;;6.00;5.60;;;14.20;99.90;;;;;;4973142;28;20180;-70
2023/08/29 03:21:26;;;;;;;6.80;6.10;;;14.10;99.90;;;;;;4974351;28;20204;-69
2023/08/29 03:23:52;;;;;;;5.57;5.10;;;14.00;99.90;;;;;;4981618;28;20442;-69
2023/08/29 03:26:17;;;;;;;6.00;5.53;;;14.10;99.90;;;;;;4977264;28;20474;-69
2023/08/29 03:28:43;;;;;;;5.77;5.23;;;14.20;99.90;;;;;;4976490;28;20216;-70
2023/08/29 03:31:13;;;;;;;6.30;5.70;;;14.20;99.90;;;;;;4982752;28;20203;-70
2023/08/29 03:33:40;;;;;;;5.20;4.80;;;14.20;99.90;;;;;;4994777;28;20437;-69
2023/08/29 03:36:06;;;;;;;6.67;5.50;;;14.20;99.90;;;;;;4979783;28;20816;-70
2023/08/29 03:38:39;;;;;;;5.83;5.43;;;14.20;99.90;;;;;;4974264;28;20809;-70
2023/08/29 03:41:05;;;;;;;6.83;6.23;;;14.20;99.90;;;;;;4966824;28;20439;-69
2023/08/29 03:43:33;;;;;;;5.70;5.20;;;14.10;99.90;;;;;;4974447;28;20945;-70
2023/08/29 03:46:00;;;;;;;6.17;5.70;;;14.10;99.90;;;;;;4970215;28;21001;-70
2023/08/29 03:48:26;;;;;;;6.40;5.90;;;14.10;99.90;;;;;;4971216;28;20431;-69
2023/08/29 03:50:52;;;;;;;5.90;5.30;;;14.20;99.90;;;;;;4976702;28;20480;-70
2023/08/29 03:53:18;;;;;;;6.57;6.07;;;14.20;99.90;;;;;;4988290;28;20474;-70
2023/08/29 03:55:43;;;;;;;5.97;5.47;;;14.20;99.90;;;;;;4977281;28;20850;-69
2023/08/29 03:58:09;;;;;;;6.57;6.03;;;14.20;99.90;;;;;;4973903;28;20646;-70
2023/08/29 04:00:34;;;;;;;6.47;6.00;;;14.10;99.90;;;;;;4973724;28;20192;-70
2023/08/29 04:03:00;;;;;;;6.60;6.20;;;14.00;99.90;;;;;;4979764;28;20183;-70
2023/08/29 04:05:27;;;;;;;6.93;5.87;;;14.00;99.90;;;;;;4991222;28;20199;-69
2023/08/29 04:07:52;;;;;;;6.67;6.17;;;14.00;99.90;;;;;;4975474;28;20926;-69
2023/08/29 04:10:18;;;;;;;8.23;7.33;;;13.90;99.90;;;;;;4973468;28;20542;-69
2023/08/29 04:12:44;;;;;;;6.70;6.10;;;13.90;99.90;;;;;;4977729;28;20188;-69
2023/08/29 04:15:12;;;;;;;6.47;5.87;;;14.00;99.90;;;;;;4986588;28;20219;-69
2023/08/29 04:17:38;;;;;;;7.43;6.70;;;14.00;99.90;;;;;;4989397;28;20436;-68
2023/08/29 04:20:08;;;;;;;9.83;9.03;;;14.00;99.90;;;;;;4985581;28;20928;-69
2023/08/29 04:22:34;;;;;;;8.77;8.00;;;13.90;99.90;;;;;;4986517;28;20434;-69
2023/08/29 04:24:59;;;;;;;8.87;8.10;;;13.90;99.90;;;;;;4975426;28;20435;-69
2023/08/29 04:27:25;;;;;;;9.80;8.90;;;13.90;99.90;;;;;;4970569;28;20490;-69
2023/08/29 04:29:50;;;;;;;9.50;8.80;;;13.90;99.90;;;;;;4977805;28;20211;-69
2023/08/29 04:32:16;;;;;;;10.40;9.40;;;13.90;99.90;;;;;;4981731;28;20235;-69
2023/08/29 04:34:41;;;;;;;11.03;10.03;;;14.00;99.90;;;;;;4982224;28;20176;-70
2023/08/29 04:37:07;;;;;;;10.50;9.70;;;14.00;99.90;;;;;;4973426;28;20208;-69
2023/08/29 04:39:33;;;;;;;10.20;9.40;;;14.00;99.90;;;;;;4980843;28;20245;-69
2023/08/29 04:41:58;;;;;;;9.83;9.03;;;14.00;99.90;;;;;;4974001;28;20184;-69
2023/08/29 04:44:24;;;;;;;11.07;10.00;;;14.00;99.90;;;;;;4972275;28;20188;-69
2023/08/29 04:46:50;;;;;;;10.40;9.60;;;14.10;99.90;;;;;;4972944;28;20196;-69
2023/08/29 04:49:15;;;;;;;12.37;11.17;;;14.10;99.90;;;;;;4987302;28;20582;-70
2023/08/29 04:51:41;;;;;;;11.00;10.10;;;14.10;99.90;;;;;;4966763;28;20180;-70
2023/08/29 04:54:07;;;;;;;10.93;10.10;;;14.10;99.90;;;;;;4973656;28;20184;-68
2023/08/29 04:56:32;;;;;;;11.77;10.87;;;14.10;99.90;;;;;;4980451;28;20319;-69
2023/08/29 04:58:58;;;;;;;11.03;9.83;;;14.10;99.90;;;;;;4973292;28;20411;-70
2023/08/29 05:01:23;;;;;;;12.30;11.27;;;14.10;99.90;;;;;;4971567;28;20188;-69
2023/08/29 05:03:49;;;;;;;12.63;11.53;;;14.00;99.90;;;;;;4972878;28;20561;-69
2023/08/29 05:06:14;;;;;;;12.63;11.63;;;14.10;99.90;;;;;;4970910;28;20228;-69
2023/08/29 05:08:40;;;;;;;12.70;11.60;;;14.10;99.90;;;;;;4970818;28;20180;-69
2023/08/29 05:11:06;;;;;;;13.67;12.37;;;14.20;99.90;;;;;;4972988;28;20199;-69
2023/08/29 05:13:31;;;;;;;12.60;11.60;;;14.20;99.90;;;;;;4971143;28;20446;-69
2023/08/29 05:15:57;;;;;;;12.13;11.20;;;14.10;99.90;;;;;;4974756;28;20231;-69
2023/08/29 05:18:23;;;;;;;13.60;12.50;;;14.20;99.90;;;;;;4983353;28;20315;-69
2023/08/29 05:20:48;;;;;;;14.43;13.13;;;14.10;99.90;;;;;;4968629;28;20278;-69
2023/08/29 05:23:14;;;;;;;13.23;12.10;;;14.10;99.90;;;;;;4973344;28;20379;-69
2023/08/29 05:25:40;;;;;;;14.77;13.27;;;14.10;99.90;;;;;;4971485;28;20583;-69
2023/08/29 05:28:05;;;;;;;15.03;13.53;;;14.00;99.90;;;;;;4975105;28;20262;-69
2023/08/29 05:30:31;;;;;;;15.57;14.37;;;14.00;99.90;;;;;;4973378;28;20625;-69
2023/08/29 05:32:57;;;;;;;13.70;12.40;;;13.90;99.90;;;;;;4986690;28;20232;-69
2023/08/29 05:35:22;;;;;;;15.73;14.13;;;13.90;99.90;;;;;;4983547;28;20199;-69
2023/08/29 05:37:48;;;;;;;19.53;14.20;;;13.90;99.90;;;;;;4975502;28;20649;-69
2023/08/29 05:40:13;;;;;;;16.80;15.00;;;14.00;99.90;;;;;;4978395;28;20550;-69
2023/08/29 05:42:39;;;;;;;15.53;14.23;;;14.00;99.90;;;;;;4980202;28;20641;-69
2023/08/29 05:45:05;;;;;;;17.73;16.13;;;14.00;99.90;;;;;;4972209;28;20207;-69
2023/08/29 05:47:30;;;;;;;17.93;14.70;;;14.10;99.90;;;;;;4976128;28;20703;-70
2023/08/29 05:49:57;;;;;;;15.47;14.17;;;14.20;99.90;;;;;;4979430;28;20457;-69
2023/08/29 05:52:23;;;;;;;16.53;15.00;;;14.20;99.90;;;;;;4977135;28;20194;-69
2023/08/29 05:54:48;;;;;;;16.33;14.83;;;14.20;99.90;;;;;;4984145;28;20436;-69
2023/08/29 05:57:15;;;;;;;14.53;13.27;;;14.30;99.90;;;;;;4980964;28;20186;-69
2023/08/29 05:59:40;;;;;;;15.97;14.57;;;14.40;99.90;;;;;;4974647;28;20180;-69
2023/08/29 06:02:06;;;;;;;13.93;12.73;;;14.40;99.90;;;;;;4978319;28;20438;-69
2023/08/29 06:04:32;;;;;;;17.10;15.50;;;14.40;99.90;;;;;;4980029;28;20613;-69
2023/08/29 06:06:58;;;;;;;16.27;14.77;;;14.50;99.90;;;;;;4979882;28;20619;-69
2023/08/29 06:09:23;;;;;;;16.47;15.07;;;14.60;99.90;;;;;;4970408;28;20538;-69
2023/08/29 06:11:49;;;;;;;18.60;16.80;;;14.60;99.90;;;;;;4971804;28;20176;-69
2023/08/29 06:14:15;;;;;;;15.13;13.83;;;14.70;99.90;;;;;;4973573;28;20230;-69
2023/08/29 06:16:40;;;;;;;16.83;15.43;;;14.60;99.90;;;;;;4975098;28;20306;-69
2023/08/29 06:19:06;;;;;;;15.30;13.97;;;14.60;99.90;;;;;;4990251;28;20191;-69
2023/08/29 06:21:31;;;;;;;16.90;15.30;;;14.60;99.90;;;;;;4981210;28;20547;-69
2023/08/29 06:23:57;;;;;;;17.80;16.10;;;14.50;99.90;;;;;;4976600;28;20681;-69
2023/08/29 06:26:22;;;;;;;16.90;15.50;;;14.50;99.90;;;;;;4975711;28;20204;-69
2023/08/29 06:28:48;;;;;;;15.50;14.10;;;14.60;99.90;;;;;;4970325;28;20220;-70
2023/08/29 06:31:14;;;;;;;15.10;13.70;;;14.60;99.90;;;;;;4964505;28;20603;-69
2023/08/29 06:33:40;;;;;;;14.87;13.43;;;14.50;99.90;;;;;;4973326;28;20653;-70
2023/08/29 06:36:06;;;;;;;15.87;14.37;;;14.50;99.90;;;;;;4975011;28;20432;-69
2023/08/29 06:38:31;;;;;;;16.20;14.73;;;14.50;99.90;;;;;;4967176;28;20247;-69
2023/08/29 06:40:58;;;;;;;16.50;15.10;;;14.40;99.90;;;;;;4971868;28;20968;-69
2023/08/29 06:43:24;;;;;;;18.30;16.60;;;14.40;99.90;;;;;;4975715;28;20211;-69
2023/08/29 06:45:50;;;;;;;15.40;14.10;;;14.40;99.90;;;;;;4976712;28;21276;-69
2023/08/29 06:48:16;;;;;;;17.20;15.70;;;14.40;99.90;;;;;;4973716;28;20439;-69
2023/08/29 06:50:41;;;;;;;16.70;15.17;;;14.40;99.90;;;;;;4973550;28;20235;-69
2023/08/29 06:53:07;;;;;;;15.40;14.20;;;14.40;99.90;;;;;;4977837;28;20214;-69
2023/08/29 06:55:34;;;;;;;16.83;15.30;;;14.40;99.90;;;;;;4987368;28;20566;-69
2023/08/29 06:58:07;;;;;;;17.00;15.50;;;14.50;99.90;;;;;;4980089;28;20446;-69
2023/08/29 07:00:33;;;;;;;16.57;15.27;;;14.50;99.90;;;;;;4982088;28;20450;-69
2023/08/29 07:02:59;;;;;;;18.00;16.50;;;14.50;99.90;;;;;;4979947;28;20432;-69
2023/08/29 07:05:26;;;;;;;16.10;14.50;;;14.50;99.90;;;;;;4982734;28;20458;-69
2023/08/29 07:07:51;;;;;;;16.30;14.80;;;14.50;99.90;;;;;;4993435;28;20427;-69
2023/08/29 07:10:17;;;;;;;15.87;14.47;;;14.40;99.90;;;;;;4994447;28;20508;-69
2023/08/29 07:12:42;;;;;;;16.97;15.57;;;14.40;99.90;;;;;;4995209;28;20258;-69
2023/08/29 07:15:08;;;;;;;16.57;15.17;;;14.40;99.90;;;;;;4995026;28;20568;-69
2023/08/29 07:17:34;;;;;;;17.00;15.40;;;14.50;99.90;;;;;;4977373;28;20646;-68
2023/08/29 07:20:00;;;;;;;17.97;16.20;;;14.50;99.90;;;;;;4973042;28;20447;-68
2023/08/29 07:22:26;;;;;;;15.43;14.23;;;14.60;99.90;;;;;;4978994;28;20432;-69
2023/08/29 07:24:52;;;;;;;17.70;16.23;;;14.60;99.90;;;;;;4955764;28;20173;-68
2023/08/29 07:27:18;;;;;;;17.53;15.70;;;14.70;99.90;;;;;;4972087;28;20188;-69
2023/08/29 07:29:43;;;;;;;18.40;16.90;;;14.80;99.90;;;;;;4974375;28;20203;-68
2023/08/29 07:32:08;;;;;;;16.90;15.50;;;14.90;99.90;;;;;;4974727;28;20642;-69
2023/08/29 07:34:34;;;;;;;16.37;14.93;;;14.90;99.90;;;;;;4973843;28;20650;-69
2023/08/29 07:37:00;;;;;;;16.40;15.00;;;15.00;99.90;;;;;;4974028;28;20250;-69
2023/08/29 07:39:25;;;;;;;15.43;14.23;;;15.00;99.90;;;;;;4979741;28;20238;-69
2023/08/29 07:41:51;;;;;;;15.13;13.93;;;15.00;99.90;;;;;;4986516;28;20178;-69
2023/08/29 07:44:16;;;;;;;23.17;21.00;;;15.20;99.90;;;;;;4980679;28;20184;-69
2023/08/29 07:46:42;;;;;;;21.07;19.13;;;15.30;99.90;;;;;;4973805;28;20262;-68
2023/08/29 07:49:13;;;;;;;14.63;13.47;;;15.40;99.90;;;;;;4974312;28;20314;-68
2023/08/29 07:51:40;;;;;;;14.60;13.40;;;15.40;99.90;;;;;;4974355;28;20227;-68
2023/08/29 07:54:05;;;;;;;13.30;11.90;;;15.40;99.90;;;;;;4973939;28;20921;-69
2023/08/29 07:56:31;;;;;;;15.47;14.17;;;15.30;99.90;;;;;;4971152;28;20467;-69
2023/08/29 07:58:56;;;;;;;12.20;11.20;;;15.30;99.90;;;;;;4974012;28;20192;-69
2023/08/29 08:01:22;;;;;;;11.93;10.90;;;15.30;99.90;;;;;;4978578;28;20183;-69
2023/08/29 08:03:47;;;;;;;13.70;12.70;;;15.30;99.90;;;;;;4982223;28;20191;-69
2023/08/29 08:06:13;;;;;;;14.47;13.10;;;15.40;99.90;;;;;;4980404;28;20204;-69
2023/08/29 08:08:38;;;;;;;12.53;11.60;;;15.30;99.90;;;;;;4977000;28;20188;-69
2023/08/29 08:11:05;;;;;;;13.57;12.27;;;15.30;99.90;;;;;;4972883;28;20214;-68
2023/08/29 08:13:31;;;;;;;12.60;11.67;;;15.30;99.90;;;;;;4989242;28;20318;-68
2023/08/29 08:15:57;;;;;;;13.63;12.60;;;15.30;99.90;;;;;;4974386;28;20488;-68
2023/08/29 08:18:22;;;;;;;14.57;13.37;;;15.10;99.90;;;;;;4972555;28;20818;-68
2023/08/29 08:20:48;;;;;;;14.80;13.50;;;15.10;99.90;;;;;;4974334;28;20180;-69
2023/08/29 08:23:13;;;;;;;13.20;12.20;;;15.00;99.90;;;;;;4978097;28;20701;-68
2023/08/29 08:25:39;;;;;;;14.07;12.87;;;15.10;99.90;;;;;;4976356;28;20266;-68
2023/08/29 08:28:06;;;;;;;15.73;14.43;;;15.20;99.90;;;;;;4974506;28;20188;-68
2023/08/29 08:30:32;;;;;;;18.47;16.67;;;15.30;99.90;;;;;;4972713;28;20302;-67
2023/08/29 08:32:58;;;;;;;17.20;15.80;;;15.40;99.90;;;;;;4971573;28;20440;-67
2023/08/29 08:35:25;;;;;;;15.90;14.60;;;15.50;99.90;;;;;;4978444;28;20452;-67
2023/08/29 08:37:50;;;;;;;15.27;14.00;;;15.40;99.90;;;;;;4986253;28;20191;-68
2023/08/29 08:40:16;;;;;;;16.43;15.13;;;15.50;99.90;;;;;;4983917;28;20427;-69
2023/08/29 08:42:44;;;;;;;14.40;13.17;;;15.50;99.90;;;;;;4973423;28;20180;-69
2023/08/29 08:45:10;;;;;;;14.73;13.53;;;15.60;99.90;;;;;;4971733;28;20211;-69
2023/08/29 08:47:37;;;;;;;14.50;13.20;;;15.70;99.90;;;;;;4973741;28;20427;-69
2023/08/29 08:50:09;;;;;;;15.57;14.37;;;15.70;99.90;;;;;;4969093;28;20473;-69
2023/08/29 08:52:36;;;;;;;16.07;14.97;;;15.80;99.90;;;;;;4973897;28;20439;-69
2023/08/29 08:55:01;;;;;;;14.23;13.23;;;15.80;99.90;;;;;;4992483;28;20506;-68
2023/08/29 08:57:27;;;;;;;15.97;14.77;;;15.80;99.90;;;;;;4972801;28;20518;-68
2023/08/29 08:59:53;;;;;;;14.50;13.40;;;15.80;99.90;;;;;;4971759;28;20188;-68
2023/08/29 09:02:19;;;;;;;13.47;12.47;;;15.80;99.90;;;;;;4973543;28;20184;-68
2023/08/29 09:04:45;;;;;;;14.53;13.20;;;15.80;99.90;;;;;;4976049;28;20184;-68
2023/08/29 09:07:11;;;;;;;12.90;11.93;;;15.90;99.90;;;;;;4975535;28;20533;-68
2023/08/29 09:09:37;;;;;;;11.50;10.70;;;15.90;99.90;;;;;;4971734;28;20227;-68
2023/08/29 09:12:03;;;;;;;12.77;11.77;;;15.90;99.90;;;;;;4970561;28;20450;-68
2023/08/29 09:14:29;;;;;;;14.20;13.10;;;15.80;99.90;;;;;;4987848;28;20183;-68
2023/08/29 09:16:59;;;;;;;15.87;14.67;;;15.80;99.90;;;;;;4987534;28;20196;-68
2023/08/29 09:19:29;;;;;;;14.40;13.20;;;15.60;99.90;;;;;;4966274;28;20462;-68
2023/08/29 09:21:55;;;;;;;14.83;13.63;;;15.70;99.90;;;;;;4972195;28;20518;-68
2023/08/29 09:24:34;;;;;;;14.53;13.53;;;15.50;99.90;;;;;;4971791;28;21104;-67
2023/08/29 09:27:10;;;;;;;14.30;13.10;;;15.50;99.90;;;;;;4979601;28;20462;-68
2023/08/29 09:29:36;;;;;;;13.90;12.80;;;15.40;99.90;;;;;;4968682;28;20471;-67
2023/08/29 09:32:15;;;;;;;14.03;12.73;;;15.40;99.90;;;;;;4969370;28;20630;-68
2023/08/29 09:34:41;;;;;;;14.37;13.30;;;15.30;99.90;;;;;;4972204;28;20462;-68
2023/08/29 09:37:07;;;;;;;13.63;12.63;;;15.40;99.90;;;;;;4978018;28;20460;-68
2023/08/29 09:39:33;;;;;;;14.90;13.80;;;15.40;99.90;;;;;;4972413;28;20443;-68
2023/08/29 09:42:10;;;;;;;14.83;13.73;;;15.40;99.90;;;;;;4975384;28;20426;-68
2023/08/29 09:44:37;;;;;;;16.87;15.47;;;15.30;99.90;;;;;;4972845;28;20176;-68
2023/08/29 09:47:05;;;;;;;16.23;15.03;;;15.40;99.90;;;;;;4971270;28;20455;-68
2023/08/29 09:49:41;;;;;;;14.83;13.67;;;15.50;99.90;;;;;;4968294;28;20923;-68
2023/08/29 09:52:07;;;;;;;14.13;13.13;;;15.70;99.90;;;;;;4975810;28;20501;-68
2023/08/29 09:54:33;;;;;;;14.93;13.70;;;15.80;99.90;;;;;;4976135;28;20427;-68
2023/08/29 09:57:05;;;;;;;14.30;13.20;;;16.00;99.90;;;;;;4970686;28;20840;-68
2023/08/29 09:59:34;;;;;;;15.00;13.90;;;16.10;99.90;;;;;;4992332;28;20437;-68
2023/08/29 10:02:01;;;;;;;15.40;14.23;;;16.30;99.90;;;;;;4991903;28;20418;-68
2023/08/29 10:04:29;;;;;;;17.03;15.60;;;16.50;99.90;;;;;;4990986;28;20427;-68
2023/08/29 10:06:56;;;;;;;14.03;12.73;;;16.80;99.90;;;;;;4970514;28;20464;-68
2023/08/29 10:09:25;;;;;;;14.60;13.30;;;17.10;99.90;;;;;;4970921;28;20436;-67
2023/08/29 10:11:52;;;;;;;13.80;12.90;;;17.20;99.90;;;;;;4967058;28;20445;-67
2023/08/29 10:14:18;;;;;;;12.53;11.73;;;17.40;99.90;;;;;;4965317;28;20454;-68
2023/08/29 10:16:46;;;;;;;14.00;12.70;;;17.50;99.90;;;;;;4964634;28;20463;-68
2023/08/29 10:19:14;;;;;;;12.90;12.00;;;17.60;99.90;;;;;;4965474;28;20482;-67
2023/08/29 10:21:42;;;;;;;13.77;12.50;;;17.60;99.90;;;;;;4962888;28;20432;-67
2023/08/29 10:24:10;;;;;;;13.20;12.10;;;17.60;99.90;;;;;;4985812;28;20478;-67
2023/08/29 10:26:37;;;;;;;12.60;11.70;;;17.50;99.90;;;;;;4972691;28;20467;-67
2023/08/29 10:29:05;;;;;;;12.60;11.60;;;17.50;99.90;;;;;;4969622;28;20439;-67
2023/08/29 10:31:34;;;;;;;11.73;11.03;;;17.40;99.90;;;;;;4969909;28;20459;-67
2023/08/29 10:34:03;;;;;;;13.77;12.77;;;17.50;99.90;;;;;;4966988;28;20829;-67
2023/08/29 10:36:29;;;;;;;13.23;12.20;;;17.60;99.90;;;;;;4963108;28;20451;-67
2023/08/29 10:38:56;;;;;;;13.20;11.93;;;17.80;99.90;;;;;;4980875;28;20449;-67
2023/08/29 10:41:22;;;;;;;13.20;12.10;;;18.10;99.90;;;;;;4981971;28;20817;-67
2023/08/29 10:43:50;;;;;;;13.33;12.43;;;18.10;99.90;;;;;;4969542;28;20439;-67
2023/08/29 10:46:16;;;;;;;12.30;11.30;;;18.10;99.90;;;;;;4970092;28;20464;-67
2023/08/29 10:48:42;;;;;;;13.27;12.07;;;17.90;99.90;;;;;;4986468;28;20481;-67
2023/08/29 10:51:10;;;;;;;12.27;11.17;;;17.80;99.90;;;;;;4965369;28;20471;-67
2023/08/29 10:53:37;;;;;;;13.10;12.13;;;17.60;99.90;;;;;;4974845;28;20453;-67
2023/08/29 10:56:08;;;;;;;13.67;12.57;;;17.30;99.90;;;;;;4971972;28;20516;-67
2023/08/29 10:58:36;;;;;;;13.53;12.43;;;17.20;99.90;;;;;;4967829;28;20546;-67
2023/08/29 11:01:02;;;;;;;14.00;13.03;;;16.90;99.90;;;;;;4973878;28;20442;-67
2023/08/29 11:03:50;;;;;;;14.40;13.00;;;16.90;99.90;;;;;;4988084;28;20497;-67
2023/08/29 11:06:23;;;;;;;14.57;13.43;;;17.10;99.90;;;;;;4976329;28;20454;-67
2023/08/29 11:08:49;;;;;;;14.67;13.47;;;17.00;99.90;;;;;;4979252;28;20447;-67
2023/08/29 11:11:18;;;;;;;13.93;12.83;;;16.80;99.90;;;;;;4976858;28;20473;-68
2023/08/29 11:14:04;;;;;;;15.77;14.57;;;16.70;99.90;;;;;;4981969;28;20435;-68
2023/08/29 11:16:37;;;;;;;16.47;15.37;;;16.50;99.90;;;;;;4982967;28;20479;-69
2023/08/29 11:19:16;;;;;;;16.20;14.70;;;16.40;99.90;;;;;;4969145;28;20435;-67
2023/08/29 11:21:45;;;;;;;17.07;15.77;;;16.40;99.90;;;;;;4971898;28;20440;-68
2023/08/29 11:24:11;;;;;;;17.33;16.03;;;16.40;99.90;;;;;;4978266;28;20485;-69
2023/08/29 11:26:41;;;;;;;17.13;15.83;;;16.20;99.90;;;;;;4981672;28;20463;-68
2023/08/29 11:29:07;;;;;;;17.63;16.33;;;16.30;99.90;;;;;;4969260;28;20274;-68
2023/08/29 11:31:42;;;;;;;18.93;17.47;;;16.20;99.90;;;;;;4977096;28;21257;-68
2023/08/29 11:34:18;;;;;;;19.67;18.03;;;16.20;99.90;;;;;;4976205;28;20836;-68
2023/08/29 11:36:50;;;;;;;17.20;15.83;;;16.40;99.90;;;;;;4974518;28;20987;-68
2023/08/29 11:39:19;;;;;;;17.20;15.73;;;16.60;99.90;;;;;;4974341;28;20917;-68
2023/08/29 11:41:45;;;;;;;18.10;16.60;;;16.90;99.90;;;;;;4991749;28;20442;-68
2023/08/29 11:44:10;;;;;;;16.17;15.07;;;17.30;99.90;;;;;;4972495;28;20452;-68
2023/08/29 11:46:36;;;;;;;17.43;15.90;;;17.70;99.90;;;;;;4982548;28;20443;-68
2023/08/29 11:49:14;;;;;;;14.40;13.40;;;18.00;99.90;;;;;;4974390;28;20562;-67
2023/08/29 11:51:41;;;;;;;15.10;13.87;;;18.30;99.90;;;;;;4970491;28;20212;-67
2023/08/29 11:54:41;;;;;;;14.73;13.70;;;18.50;99.90;;;;;;4994216;28;20423;-68
2023/08/29 11:57:08;;;;;;;14.13;13.00;;;18.60;99.90;;;;;;4993124;28;20968;-68
2023/08/29 11:59:34;;;;;;;15.90;14.60;;;18.60;99.90;;;;;;4972242;28;20793;-68
2023/08/29 12:02:00;;;;;;;14.33;13.23;;;18.50;99.90;;;;;;4978905;28;20447;-68
2023/08/29 12:04:27;;;;;;;14.07;13.10;;;18.20;99.90;;;;;;4986245;28;20496;-68
2023/08/29 12:07:08;;;;;;;13.03;12.00;;;18.40;99.90;;;;;;4976160;28;20200;-69
2023/08/29 12:09:33;;;;;;;14.30;13.03;;;18.50;99.90;;;;;;4977358;28;20442;-67
2023/08/29 12:11:59;;;;;;;13.80;12.90;;;18.50;99.90;;;;;;4965407;28;20444;-68
2023/08/29 12:14:27;;;;;;;13.97;12.97;;;18.30;99.90;;;;;;4973326;28;20177;-67
2023/08/29 12:16:53;;;;;;;15.90;14.90;;;18.00;99.90;;;;;;4975571;28;20262;-68
2023/08/29 12:19:19;;;;;;;16.60;15.50;;;17.70;99.90;;;;;;4974356;28;20443;-68
2023/08/29 12:21:54;;;;;;;18.43;16.80;;;17.40;99.90;;;;;;4973051;28;20436;-68
2023/08/29 12:24:21;;;;;;;16.47;15.23;;;17.30;99.90;;;;;;4974175;28;20204;-69
2023/08/29 12:26:46;;;;;;;17.40;16.10;;;17.30;99.90;;;;;;4973048;28;20458;-68
2023/08/29 12:29:12;;;;;;;17.20;16.00;;;17.20;99.90;;;;;;4976481;28;20800;-67
2023/08/29 12:31:37;;;;;;;19.40;17.90;;;17.10;99.90;;;;;;4974731;28;20838;-67
2023/08/29 12:34:04;;;;;;;18.90;16.57;;;17.00;99.90;;;;;;4972113;28;20197;-67